createdAt,value
2018-12-16T00:00:53.685Z,17.02
2018-12-16T00:03:20.460Z,16.93
2018-12-16T00:05:47.202Z,16.80
2018-12-16T00:08:13.927Z,17.42
2018-12-16T00:10:40.680Z,20.30
2018-12-16T00:13:07.507Z,19.30
2018-12-16T00:15:34.274Z,19.15
2018-12-16T00:18:01.044Z,17.73
2018-12-16T00:20:27.886Z,21.95
2018-12-16T00:22:54.637Z,18.80
2018-12-16T00:25:21.565Z,18.52
2018-12-16T00:27:48.307Z,16.60
2018-12-16T00:30:15.063Z,19.92
2018-12-16T00:32:41.831Z,20.32
2018-12-16T00:35:08.634Z,18.55
2018-12-16T00:37:35.374Z,19.77
2018-12-16T00:40:02.128Z,18.40
2018-12-16T00:42:28.910Z,22.10
2018-12-16T00:44:55.659Z,18.20
2018-12-16T00:47:22.438Z,20.43
2018-12-16T00:49:49.210Z,21.82
2018-12-16T00:52:15.932Z,21.02
2018-12-16T00:54:42.686Z,19.17
2018-12-16T00:57:09.447Z,19.65
2018-12-16T00:59:36.166Z,15.38
2018-12-16T01:02:02.929Z,21.33
2018-12-16T01:04:29.644Z,17.42
2018-12-16T01:06:56.400Z,16.85
2018-12-16T01:09:23.165Z,17.23
2018-12-16T01:11:49.878Z,19.30
2018-12-16T01:14:16.709Z,16.55
2018-12-16T01:16:43.450Z,17.27
2018-12-16T01:19:10.198Z,18.82
2018-12-16T01:21:36.941Z,20.00
2018-12-16T01:24:03.669Z,19.32
2018-12-16T01:26:30.482Z,19.82
2018-12-16T01:28:57.316Z,18.00
2018-12-16T01:31:24.058Z,21.00
2018-12-16T01:33:50.801Z,20.20
2018-12-16T01:36:19.635Z,17.92
2018-12-16T01:38:46.664Z,19.65
2018-12-16T01:41:13.416Z,20.00
2018-12-16T01:43:40.145Z,19.75
2018-12-16T01:46:06.880Z,15.03
2018-12-16T01:48:33.638Z,19.55
2018-12-16T01:51:00.424Z,18.25
2018-12-16T01:53:27.158Z,16.07
2018-12-16T01:55:53.912Z,19.42
2018-12-16T01:58:20.678Z,20.68
2018-12-16T02:00:47.424Z,20.60
2018-12-16T02:03:14.172Z,20.08
2018-12-16T02:05:40.940Z,21.80
2018-12-16T02:08:07.708Z,18.62
2018-12-16T02:10:34.451Z,18.87
2018-12-16T02:13:01.186Z,19.45
2018-12-16T02:15:27.940Z,17.60
2018-12-16T02:17:54.700Z,21.52
2018-12-16T02:20:21.540Z,18.75
2018-12-16T02:22:48.280Z,21.55
2018-12-16T02:25:15.082Z,18.80
2018-12-16T02:27:41.799Z,20.43
2018-12-16T02:30:10.548Z,18.37
2018-12-16T02:32:37.299Z,19.98
2018-12-16T02:35:04.510Z,17.40
2018-12-16T02:37:31.254Z,18.32
2018-12-16T02:39:57.987Z,19.23
2018-12-16T02:42:24.832Z,18.07
2018-12-16T02:44:51.568Z,18.42
2018-12-16T02:47:18.330Z,17.80
2018-12-16T02:49:45.047Z,19.48
2018-12-16T02:52:11.782Z,20.72
2018-12-16T02:54:38.526Z,19.30
2018-12-16T02:57:05.261Z,18.57
2018-12-16T02:59:31.976Z,19.55
2018-12-16T03:01:58.746Z,19.55
2018-12-16T03:04:25.470Z,22.27
2018-12-16T03:06:52.228Z,17.23
2018-12-16T03:09:21.448Z,20.10
2018-12-16T03:11:50.762Z,19.98
2018-12-16T03:14:17.670Z,20.05
2018-12-16T03:16:44.398Z,19.60
2018-12-16T03:19:11.144Z,21.02
2018-12-16T03:21:37.935Z,17.40
2018-12-16T03:24:04.667Z,20.37
2018-12-16T03:26:35.772Z,19.10
2018-12-16T03:29:00.199Z,18.05
2018-12-16T03:31:26.968Z,19.17
2018-12-16T03:33:53.822Z,19.75
2018-12-16T03:36:20.536Z,20.08
2018-12-16T03:38:47.355Z,19.60
2018-12-16T03:41:14.095Z,20.68
2018-12-16T03:43:40.827Z,20.65
2018-12-16T03:46:08.910Z,20.92
2018-12-16T03:48:37.417Z,19.30
2018-12-16T03:51:05.516Z,18.67
2018-12-16T03:53:32.259Z,19.90
2018-12-16T03:55:59.023Z,20.95
2018-12-16T03:58:25.764Z,19.73
2018-12-16T04:00:52.536Z,16.27
2018-12-16T04:03:19.287Z,17.50
2018-12-16T04:05:46.007Z,19.92
2018-12-16T04:08:12.807Z,21.00
2018-12-16T04:10:39.592Z,23.05
2018-12-16T04:13:06.326Z,21.57
2018-12-16T04:15:33.119Z,20.32
2018-12-16T04:17:59.860Z,20.20
2018-12-16T04:20:26.641Z,23.27
2018-12-16T04:22:53.369Z,20.35
2018-12-16T04:25:22.641Z,22.15
2018-12-16T04:27:49.389Z,22.02
2018-12-16T04:30:16.125Z,17.55
2018-12-16T04:32:47.773Z,20.68
2018-12-16T04:35:14.652Z,19.00
2018-12-16T04:37:41.385Z,20.95
2018-12-16T04:40:10.306Z,20.50
2018-12-16T04:42:37.280Z,20.23
2018-12-16T04:45:04.473Z,20.23
2018-12-16T04:47:32.183Z,20.80
2018-12-16T04:49:59.147Z,20.12
2018-12-16T04:52:25.894Z,20.57
2018-12-16T04:54:52.650Z,22.42
2018-12-16T04:57:19.378Z,20.77
2018-12-16T04:59:46.175Z,21.55
2018-12-16T05:02:12.903Z,17.05
2018-12-16T05:04:39.639Z,22.32
2018-12-16T05:07:06.540Z,20.52
2018-12-16T05:09:33.325Z,16.73
2018-12-16T05:12:00.054Z,22.17
2018-12-16T05:14:26.803Z,22.25
2018-12-16T05:16:53.552Z,18.15
2018-12-16T05:19:20.312Z,19.27
2018-12-16T05:21:47.055Z,17.07
2018-12-16T05:24:13.840Z,23.52
2018-12-16T05:26:40.579Z,20.02
2018-12-16T05:29:07.313Z,23.10
2018-12-16T05:31:34.063Z,24.15
2018-12-16T05:34:00.789Z,18.77
2018-12-16T05:36:27.562Z,21.23
2018-12-16T05:38:54.293Z,23.50
2018-12-16T05:41:21.034Z,19.70
2018-12-16T05:43:47.794Z,21.17
2018-12-16T05:46:14.631Z,19.37
2018-12-16T05:48:41.366Z,20.75
2018-12-16T05:51:08.113Z,17.80
2018-12-16T05:53:34.896Z,19.00
2018-12-16T05:56:01.678Z,23.87
2018-12-16T05:58:28.687Z,20.32
2018-12-16T06:01:10.230Z,19.07
2018-12-16T06:03:37.012Z,19.27
2018-12-16T06:06:03.748Z,17.27
2018-12-16T06:08:30.496Z,19.92
2018-12-16T06:10:57.299Z,20.05
2018-12-16T06:13:24.042Z,20.55
2018-12-16T06:15:52.633Z,20.55
2018-12-16T06:18:19.489Z,20.25
2018-12-16T06:20:48.036Z,22.10
2018-12-16T06:23:15.248Z,18.75
2018-12-16T06:25:41.986Z,21.85
2018-12-16T06:28:08.731Z,19.52
2018-12-16T06:30:35.867Z,18.75
2018-12-16T06:33:02.675Z,18.75
2018-12-16T06:35:29.428Z,20.50
2018-12-16T06:37:56.179Z,19.27
2018-12-16T06:40:22.905Z,18.90
2018-12-16T06:42:49.656Z,17.23
2018-12-16T06:45:16.403Z,20.62
2018-12-16T06:47:43.188Z,19.30
2018-12-16T06:50:09.945Z,19.67
2018-12-16T06:52:36.716Z,18.23
2018-12-16T06:55:03.792Z,20.62
2018-12-16T06:57:30.532Z,18.87
2018-12-16T06:59:57.283Z,18.92
2018-12-16T07:02:24.013Z,19.23
2018-12-16T07:04:50.790Z,19.70
2018-12-16T07:07:17.545Z,19.52
2018-12-16T07:09:44.328Z,19.55
2018-12-16T07:12:11.078Z,18.25
2018-12-16T07:14:37.813Z,18.07
2018-12-16T07:17:06.241Z,19.62
2018-12-16T07:19:33.726Z,18.15
2018-12-16T07:22:01.378Z,20.80
2018-12-16T07:24:30.387Z,21.17
2018-12-16T07:26:57.290Z,16.87
2018-12-16T07:29:24.043Z,18.20
2018-12-16T07:31:51.561Z,18.48
2018-12-16T07:34:20.138Z,19.02
2018-12-16T07:36:47.831Z,19.52
2018-12-16T07:39:15.631Z,19.15
2018-12-16T07:41:43.784Z,19.37
2018-12-16T07:44:11.717Z,20.88
2018-12-16T07:46:42.139Z,17.85
2018-12-16T07:49:09.047Z,18.98
2018-12-16T07:51:36.009Z,17.15
2018-12-16T07:54:02.910Z,18.05
2018-12-16T07:56:29.645Z,18.07
2018-12-16T07:58:56.395Z,18.20
2018-12-16T08:01:23.153Z,20.17
2018-12-16T08:03:49.925Z,20.35
2018-12-16T08:06:16.729Z,20.27
2018-12-16T08:08:43.540Z,17.57
2018-12-16T08:11:10.452Z,18.98
2018-12-16T08:13:37.319Z,17.25
2018-12-16T08:16:05.172Z,20.80
2018-12-16T08:18:32.389Z,18.73
2018-12-16T08:20:59.212Z,17.45
2018-12-16T08:23:26.032Z,19.27
2018-12-16T08:25:52.844Z,18.98
2018-12-16T08:28:19.640Z,20.80
2018-12-16T08:30:46.416Z,19.42
2018-12-16T08:33:13.160Z,21.37
2018-12-16T08:35:41.715Z,18.90
2018-12-16T08:38:08.761Z,20.43
2018-12-16T08:40:35.566Z,18.50
2018-12-16T08:43:04.520Z,20.30
2018-12-16T08:45:31.357Z,16.30
2018-12-16T08:47:58.352Z,19.77
2018-12-16T08:50:28.746Z,18.98
2018-12-16T08:52:57.586Z,20.32
2018-12-16T08:55:25.974Z,20.50
2018-12-16T08:57:53.178Z,19.35
2018-12-16T12:01:34.804Z,14.87
2018-12-16T12:04:03.720Z,17.23
2018-12-16T12:06:30.460Z,16.55
2018-12-16T12:08:57.213Z,16.50
2018-12-16T12:11:24.033Z,16.82
2018-12-16T12:13:50.743Z,16.90
2018-12-16T12:16:17.453Z,16.55
2018-12-16T12:18:44.193Z,17.85
2018-12-16T12:21:10.900Z,17.35
2018-12-16T12:23:37.659Z,16.27
2018-12-16T12:26:04.372Z,16.93
2018-12-16T12:28:31.163Z,17.73
2018-12-16T12:30:57.978Z,17.65
2018-12-16T12:33:24.741Z,17.05
2018-12-16T12:35:51.459Z,18.07
2018-12-16T12:38:18.237Z,16.25
2018-12-16T12:40:44.962Z,19.62
2018-12-16T12:43:11.702Z,18.40
2018-12-16T12:45:38.483Z,20.27
2018-12-16T12:48:05.199Z,17.45
2018-12-16T12:50:31.921Z,18.05
2018-12-16T12:52:58.667Z,17.30
2018-12-16T12:55:26.955Z,17.32
2018-12-16T12:57:53.949Z,17.40
2018-12-16T13:00:20.688Z,16.45
2018-12-16T13:02:47.432Z,17.20
2018-12-16T13:05:14.161Z,17.12
2018-12-16T13:07:40.883Z,17.12
2018-12-16T13:10:08.287Z,18.00
2018-12-16T13:12:35.056Z,18.55
2018-12-16T13:15:01.872Z,18.90
2018-12-16T13:17:28.622Z,17.90
2018-12-16T13:19:55.341Z,17.75
2018-12-16T13:22:22.076Z,17.37
2018-12-16T13:24:54.726Z,17.35
2018-12-16T13:27:21.504Z,16.75
2018-12-16T13:29:48.228Z,17.42
2018-12-16T13:32:14.938Z,17.65
2018-12-16T13:34:41.720Z,18.10
2018-12-16T13:37:08.482Z,18.57
2018-12-16T13:39:35.244Z,18.20
2018-12-16T13:42:02.008Z,16.75
2018-12-16T13:44:28.749Z,20.37
2018-12-16T13:46:55.471Z,17.73
2018-12-16T13:49:22.244Z,18.90
2018-12-16T13:51:48.974Z,17.65
2018-12-16T13:54:15.679Z,17.70
2018-12-16T13:56:42.457Z,17.60
2018-12-16T13:59:09.184Z,18.20
2018-12-16T14:01:35.898Z,18.32
2018-12-16T14:04:02.640Z,16.85
2018-12-16T14:06:29.424Z,16.90
2018-12-16T14:08:56.123Z,17.80
2018-12-16T14:11:22.844Z,16.97
2018-12-16T14:13:49.650Z,17.67
2018-12-16T14:16:16.373Z,16.45
2018-12-16T14:18:43.083Z,17.17
2018-12-16T14:21:09.831Z,18.25
2018-12-16T14:23:36.579Z,16.32
2018-12-16T14:26:03.365Z,17.42
2018-12-16T14:28:30.151Z,18.40
2018-12-16T14:30:56.935Z,17.02
2018-12-16T14:33:23.640Z,18.42
2018-12-16T14:35:50.608Z,16.90
2018-12-16T14:38:17.583Z,17.85
2018-12-16T14:40:44.348Z,16.07
2018-12-16T14:43:11.123Z,16.42
2018-12-16T14:45:37.847Z,17.40
2018-12-16T14:48:04.607Z,17.65
2018-12-16T14:50:31.339Z,17.35
2018-12-16T14:52:58.073Z,17.80
2018-12-16T14:55:24.999Z,18.17
2018-12-16T14:57:51.766Z,16.95
2018-12-16T15:00:18.527Z,18.05
2018-12-16T15:02:45.248Z,17.90
2018-12-16T15:05:12.087Z,18.15
2018-12-16T15:07:38.805Z,18.50
2018-12-16T15:10:06.434Z,17.73
2018-12-16T15:12:33.199Z,18.00
2018-12-16T15:14:59.904Z,19.17
2018-12-16T15:17:26.695Z,17.85
2018-12-16T15:19:53.439Z,20.17
2018-12-16T15:22:20.200Z,18.37
2018-12-16T15:24:46.952Z,18.12
2018-12-16T15:27:13.707Z,19.07
2018-12-16T15:29:40.565Z,18.23
2018-12-16T15:32:08.175Z,17.75
2018-12-16T15:34:35.132Z,18.65
2018-12-16T15:37:01.851Z,18.67
2018-12-16T15:39:28.569Z,19.70
2018-12-16T15:41:55.345Z,18.95
2018-12-16T15:44:22.077Z,20.00
2018-12-16T15:46:48.823Z,18.92
2018-12-16T15:49:15.568Z,19.70
2018-12-16T15:51:42.319Z,19.42
2018-12-16T15:54:09.076Z,20.27
2018-12-16T15:56:35.835Z,20.65
2018-12-16T15:59:02.603Z,20.80
2018-12-16T16:01:29.327Z,21.60
2018-12-16T16:03:56.031Z,17.80
2018-12-16T16:06:22.777Z,18.07
2018-12-16T16:08:49.500Z,19.40
2018-12-16T16:11:16.238Z,20.92
2018-12-16T16:13:42.976Z,19.90
2018-12-16T16:16:09.686Z,20.32
2018-12-16T16:18:36.428Z,19.48
2018-12-16T16:21:03.162Z,19.52
2018-12-16T16:23:29.891Z,20.92
2018-12-16T16:25:56.696Z,21.45
2018-12-16T16:28:23.433Z,21.27
2018-12-16T16:30:50.149Z,20.35
2018-12-16T16:33:16.917Z,20.30
2018-12-16T16:35:44.486Z,20.12
2018-12-16T16:40:55.525Z,20.32
2018-12-16T16:43:23.629Z,21.95
2018-12-16T16:45:51.342Z,20.10
2018-12-16T16:48:18.212Z,18.75
2018-12-16T16:50:45.885Z,20.12
2018-12-16T16:53:13.281Z,20.43
2018-12-16T16:55:41.679Z,19.27
2018-12-16T16:58:09.598Z,21.90
2018-12-16T17:00:36.533Z,20.72
2018-12-16T17:03:05.028Z,21.52
2018-12-16T17:05:32.031Z,21.15
2018-12-16T17:07:59.526Z,20.55
2018-12-16T17:10:27.412Z,22.20
2018-12-16T17:12:56.305Z,19.87
2018-12-16T17:15:23.797Z,21.80
2018-12-16T17:17:51.798Z,22.85
2018-12-16T17:20:19.805Z,21.23
2018-12-16T17:22:47.007Z,22.42
2018-12-16T17:25:17.890Z,19.82
2018-12-16T17:27:45.102Z,20.17
2018-12-16T17:30:12.071Z,19.85
2018-12-16T17:32:39.706Z,21.45
2018-12-16T17:35:07.809Z,21.42
2018-12-16T17:37:36.433Z,21.62
2018-12-16T17:40:05.100Z,20.82
2018-12-16T17:42:33.382Z,23.27
2018-12-16T17:45:02.194Z,20.95
2018-12-16T17:47:30.557Z,21.45
2018-12-16T17:49:58.352Z,21.65
2018-12-16T17:52:26.407Z,23.27
2018-12-16T17:54:55.105Z,24.40
2018-12-16T17:57:22.867Z,22.40
2018-12-16T17:59:50.810Z,22.67
2018-12-16T18:02:20.344Z,21.07
2018-12-16T18:04:47.188Z,22.27
2018-12-16T18:07:16.454Z,23.07
2018-12-16T18:09:43.805Z,20.62
2018-12-16T18:12:17.303Z,20.95
2018-12-16T18:14:47.217Z,22.27
2018-12-16T18:17:14.893Z,23.85
2018-12-16T18:19:44.726Z,22.00
2018-12-16T18:22:14.497Z,22.52
2018-12-16T18:24:42.490Z,21.57
2018-12-16T18:27:11.383Z,22.95
2018-12-16T18:29:40.275Z,23.50
2018-12-16T18:32:09.649Z,22.32
2018-12-16T18:34:38.043Z,23.73
2018-12-16T18:37:06.615Z,21.50
2018-12-16T18:39:34.474Z,21.42
2018-12-16T18:42:02.591Z,24.63
2018-12-16T18:44:30.354Z,22.32
2018-12-16T18:47:00.062Z,22.27
2018-12-16T18:49:26.825Z,24.70
2018-12-16T18:51:55.594Z,24.90
2018-12-16T18:54:23.596Z,23.38
2018-12-16T18:56:53.157Z,22.48
2018-12-16T18:59:21.275Z,24.47
2018-12-16T19:01:49.987Z,23.05
2018-12-16T19:04:20.071Z,24.80
2018-12-16T19:06:48.761Z,23.12
2018-12-16T19:09:17.038Z,23.00
2018-12-16T19:11:45.280Z,24.20
2018-12-16T19:14:13.877Z,23.77
2018-12-16T19:16:41.058Z,25.23
2018-12-16T19:19:07.968Z,23.27
2018-12-16T19:21:34.789Z,24.25
2018-12-16T19:24:02.474Z,24.05
2018-12-16T19:26:31.322Z,21.80
2018-12-16T19:29:00.082Z,24.65
2018-12-16T19:31:28.643Z,26.12
2018-12-16T19:33:57.528Z,24.90
2018-12-16T19:36:29.217Z,24.60
2018-12-16T19:38:57.253Z,22.98
2018-12-16T19:41:24.788Z,24.32
2018-12-16T19:43:52.887Z,22.65
2018-12-16T19:46:21.082Z,23.10
2018-12-16T19:48:48.017Z,25.40
2018-12-16T19:51:15.941Z,24.55
2018-12-16T19:53:44.252Z,25.32
2018-12-16T19:56:12.762Z,24.57
2018-12-16T19:58:41.516Z,23.47
2018-12-16T20:01:09.839Z,26.15
2018-12-16T20:03:41.663Z,24.80
2018-12-16T20:06:15.848Z,24.10
2018-12-16T20:08:44.088Z,27.45
2018-12-16T20:11:12.450Z,24.90
2018-12-16T20:13:40.919Z,26.40
2018-12-16T20:16:08.599Z,25.40
2018-12-16T20:18:37.047Z,25.35
2018-12-16T20:21:06.354Z,24.80
2018-12-16T20:23:33.290Z,24.18
2018-12-16T20:26:00.427Z,25.27
2018-12-16T20:28:28.449Z,25.77
2018-12-16T20:30:56.091Z,24.52
2018-12-16T20:33:23.901Z,25.00
2018-12-16T20:35:52.993Z,25.30
2018-12-16T20:38:21.586Z,24.80
2018-12-16T20:40:50.040Z,26.80
2018-12-16T20:43:18.448Z,28.02
2018-12-16T20:45:47.154Z,26.48
2018-12-16T20:48:15.802Z,28.23
2018-12-16T20:50:43.621Z,27.30
2018-12-16T20:53:11.420Z,26.82
2018-12-16T20:55:38.206Z,27.07
2018-12-16T20:58:04.990Z,27.93
2018-12-16T21:00:34.091Z,27.80
2018-12-16T21:03:00.953Z,29.30
2018-12-16T21:08:16.362Z,28.23
2018-12-16T21:10:43.165Z,26.05
2018-12-16T21:13:15.780Z,27.10
2018-12-16T21:15:48.161Z,26.15
2018-12-16T21:18:22.565Z,25.37
2018-12-16T21:20:49.403Z,28.57
2018-12-16T21:23:16.174Z,26.48
2018-12-16T21:25:42.945Z,26.48
2018-12-16T21:28:09.753Z,29.12
2018-12-16T21:30:40.539Z,28.12
2018-12-16T21:33:07.851Z,27.00
2018-12-16T21:35:34.793Z,27.65
2018-12-16T21:38:01.493Z,27.13
2018-12-16T21:40:28.228Z,28.23
2018-12-16T21:42:54.961Z,26.82
2018-12-16T21:45:21.913Z,26.95
2018-12-16T21:47:48.633Z,26.30
2018-12-16T21:50:15.443Z,28.17
2018-12-16T21:52:42.169Z,27.80
2018-12-16T21:55:08.861Z,26.62
2018-12-16T21:57:35.582Z,27.85
2018-12-16T22:00:02.379Z,28.00
2018-12-16T22:02:29.131Z,26.60
2018-12-16T22:04:55.828Z,28.65
2018-12-16T22:07:22.531Z,27.62
2018-12-16T22:09:49.290Z,29.10
2018-12-16T22:12:15.998Z,33.35
2018-12-16T22:14:42.753Z,29.60
2018-12-16T22:17:09.579Z,28.47
2018-12-16T22:19:36.290Z,29.12
2018-12-16T22:22:03.153Z,26.37
2018-12-16T22:24:29.854Z,27.25
2018-12-16T22:26:56.574Z,28.05
2018-12-16T22:29:23.277Z,28.83
2018-12-16T22:31:49.987Z,28.47
2018-12-16T22:34:16.692Z,28.30
2018-12-16T22:36:43.406Z,29.37
2018-12-16T22:39:10.124Z,29.05
2018-12-16T22:41:36.834Z,28.70
2018-12-16T22:44:03.621Z,28.90
2018-12-16T22:46:30.513Z,29.55
2018-12-16T22:48:57.218Z,29.07
2018-12-16T22:51:23.957Z,28.50
2018-12-16T22:53:50.658Z,29.63
2018-12-16T22:56:17.359Z,32.00
2018-12-16T22:58:44.118Z,28.90
2018-12-16T23:01:16.663Z,28.60
2018-12-16T23:03:43.382Z,28.75
2018-12-16T23:06:10.131Z,28.25
2018-12-16T23:08:36.859Z,29.27
2018-12-16T23:11:03.618Z,29.60
2018-12-16T23:13:30.334Z,29.50
2018-12-16T23:15:57.079Z,28.87
2018-12-16T23:18:23.807Z,28.40
2018-12-16T23:20:50.525Z,29.18
2018-12-16T23:23:17.271Z,27.70
2018-12-16T23:25:43.968Z,32.55
2018-12-16T23:28:10.670Z,32.08
2018-12-16T23:30:37.396Z,30.80
2018-12-16T23:33:04.090Z,28.05
2018-12-16T23:35:30.801Z,30.35
2018-12-16T23:37:57.538Z,30.23
2018-12-16T23:40:24.254Z,30.75
2018-12-16T23:42:50.994Z,29.27
2018-12-16T23:45:17.698Z,28.38
2018-12-16T23:47:44.398Z,32.98
2018-12-16T23:50:11.212Z,27.65
2018-12-16T23:52:38.040Z,30.82
2018-12-16T23:55:04.794Z,29.72
2018-12-16T23:57:31.537Z,29.42
2018-12-16T23:59:58.391Z,30.97
